Aviation Digital Data Service (ADDS)

Output produced by METARs form (0624 UTC 19 December 2014)
found at http://www.aviationweather.gov/adds/metars/
 
KPIA 190530Z 1906/2006 03002KT P6SM SCT050 
     FM191500 VRB03KT P6SM BKN050